createdAt,value
2023-02-26T05:52:13.816Z,99.90
2023-02-26T05:54:41.543Z,99.90
2023-02-26T05:57:09.360Z,99.90
2023-02-26T05:59:38.654Z,99.90
2023-02-26T06:02:06.428Z,99.90
2023-02-26T06:04:34.413Z,99.90
2023-02-26T06:07:02.314Z,99.90
2023-02-26T06:09:31.342Z,99.90
2023-02-26T06:11:59.044Z,99.90
2023-02-26T06:14:27.234Z,99.90
2023-02-26T06:16:55.066Z,99.90
2023-02-26T06:19:22.829Z,99.90
2023-02-26T06:21:50.542Z,99.90
2023-02-26T10:20:56.581Z,99.90
2023-02-26T10:30:59.376Z,99.90
2023-02-26T10:33:37.560Z,99.90
2023-02-26T10:36:14.267Z,99.90
2023-02-26T10:38:45.031Z,99.90
2023-02-26T10:41:16.652Z,99.90
2023-02-26T10:43:49.974Z,99.90
2023-02-26T10:46:28.824Z,99.90
2023-02-26T10:56:26.804Z,99.90
2023-02-26T10:58:55.150Z,99.90
2023-02-26T11:01:26.435Z,99.90
2023-02-26T11:04:00.033Z,99.90
2023-02-26T11:06:31.404Z,99.90
2023-02-26T11:09:00.744Z,99.90
2023-02-26T11:11:44.073Z,99.90
2023-02-26T11:14:12.525Z,99.90
2023-02-26T11:16:47.082Z,99.30
2023-02-26T11:19:16.962Z,99.90
2023-02-26T11:21:47.902Z,90.80
2023-02-26T11:24:22.723Z,93.40
2023-02-26T11:26:52.263Z,94.50
2023-02-26T11:29:23.036Z,94.50
2023-02-26T11:31:55.700Z,98.10
2023-02-26T11:34:25.287Z,96.80
2023-02-26T11:36:54.649Z,94.40
2023-02-26T11:39:25.439Z,92.20
2023-02-26T11:49:13.854Z,96.70
2023-02-26T11:59:03.000Z,97.90
2023-02-26T12:01:31.307Z,97.30
2023-02-26T12:04:02.425Z,96.30
2023-02-26T12:06:31.604Z,95.30
2023-02-26T12:09:00.176Z,93.50
2023-02-26T12:11:46.344Z,93.20
2023-02-26T12:14:31.050Z,95.00
2023-02-26T12:17:13.249Z,90.80
2023-02-26T12:19:47.082Z,92.00
2023-02-26T12:22:30.835Z,87.30
2023-02-26T12:25:21.731Z,88.10
2023-02-26T12:28:10.149Z,80.50
2023-02-26T12:30:54.291Z,77.40
2023-02-26T12:54:06.164Z,89.80
2023-02-26T12:57:10.125Z,90.10
2023-02-26T12:59:59.029Z,85.00
2023-02-26T13:02:59.015Z,76.20
2023-02-26T13:05:39.648Z,72.60
2023-02-26T13:08:15.087Z,84.60
2023-02-26T13:10:55.891Z,93.70
2023-02-26T13:13:58.441Z,98.10
2023-02-26T13:16:38.521Z,98.60
2023-02-26T13:19:16.458Z,99.90
2023-02-26T13:21:48.911Z,98.60
2023-02-26T13:24:21.774Z,97.80
2023-02-26T13:26:52.370Z,98.90
2023-02-26T13:29:24.401Z,94.10
2023-02-26T13:39:37.585Z,66.30
2023-02-26T13:42:14.542Z,65.60
2023-02-26T13:44:53.032Z,60.20
2023-02-26T13:47:42.653Z,51.30
2023-02-26T13:50:26.156Z,56.20
2023-02-26T13:52:55.692Z,57.20
2023-02-26T13:55:48.800Z,65.10
2023-02-26T13:58:36.261Z,65.30
2023-02-26T14:01:11.202Z,55.80
2023-02-26T14:03:47.358Z,52.30
2023-02-26T14:06:44.430Z,31.90
2023-02-26T14:09:35.782Z,36.30
2023-02-26T14:12:06.139Z,15.00
2023-02-26T14:14:40.152Z,40.70
2023-02-26T14:17:32.026Z,50.60
2023-02-26T14:20:18.677Z,50.10
2023-02-26T14:22:51.360Z,42.50
2023-02-26T14:25:33.064Z,44.00
2023-02-26T14:28:33.961Z,20.30
2023-02-26T14:31:11.098Z,17.60
2023-02-26T14:33:43.469Z,10.40
2023-02-26T14:36:18.328Z,12.40
2023-02-26T14:38:46.490Z,16.30
2023-02-26T14:41:24.962Z,14.20
2023-02-26T14:44:01.892Z,21.80
2023-02-26T14:46:30.407Z,23.30
2023-02-26T14:48:59.334Z,22.50
2023-02-26T14:51:38.999Z,33.80
2023-02-26T14:54:28.367Z,23.40
2023-02-26T14:57:04.516Z,30.00
2023-02-26T14:59:52.526Z,36.00
2023-02-26T15:02:29.353Z,42.10
2023-02-26T15:05:26.105Z,48.00
2023-02-26T15:08:05.513Z,47.70
2023-02-26T15:10:46.056Z,49.60
2023-02-26T15:13:28.769Z,58.00
2023-02-26T15:16:03.407Z,66.30
2023-02-26T15:19:09.172Z,66.70
2023-02-26T15:21:47.093Z,89.10
2023-02-26T15:24:16.623Z,95.20
2023-02-26T15:26:48.681Z,97.30
2023-02-26T15:29:17.820Z,96.40
2023-02-26T15:31:54.835Z,99.90
2023-02-26T15:34:23.240Z,99.90
2023-02-26T15:36:53.468Z,99.90
2023-02-26T15:39:23.898Z,99.90
2023-02-26T15:41:54.645Z,99.60
2023-02-26T15:44:28.118Z,99.90
2023-02-26T15:47:00.409Z,99.70
2023-02-26T15:49:30.638Z,97.20
2023-02-26T15:52:00.090Z,87.50
2023-02-26T15:54:34.762Z,88.80
2023-02-26T15:57:04.314Z,63.30
2023-02-26T15:59:34.084Z,57.60
2023-02-26T16:02:05.325Z,49.80
2023-02-26T16:04:39.189Z,55.30
2023-02-26T16:07:08.752Z,59.00
2023-02-26T16:09:40.370Z,59.60
2023-02-26T16:12:11.853Z,56.90
2023-02-26T16:14:44.517Z,58.30
2023-02-26T16:17:22.108Z,58.90
2023-02-26T16:19:51.876Z,56.40
2023-02-26T16:22:28.773Z,60.70
2023-02-26T17:01:25.811Z,93.70
2023-02-26T17:04:05.114Z,95.70
2023-02-26T17:06:43.516Z,95.70
2023-02-26T17:09:38.633Z,95.70
2023-02-26T17:12:25.148Z,97.80
2023-02-26T17:14:58.679Z,97.40
2023-02-26T17:21:47.544Z,97.90
2023-02-26T17:24:34.766Z,99.50
2023-02-26T17:27:48.052Z,99.50
2023-02-26T17:30:57.282Z,99.80
2023-02-26T17:36:32.860Z,99.90
2023-02-26T17:39:09.022Z,99.90
2023-02-26T17:41:58.661Z,99.90
2023-02-26T17:45:03.422Z,99.10
2023-02-26T17:48:10.719Z,99.90
2023-02-26T17:50:49.980Z,99.40
2023-02-26T17:53:21.642Z,99.30
